Time;durP1;ratioP1;P1;durP2;ratioP2;P2;SDS_P1;SDS_P2;PMS_P1;PMS_P2;Temp;Humidity;BMP_temperature;BMP_pressure;BME280_temperature;BME280_humidity;BME280_pressure;Samples;Min_cycle;Max_cycle;Signal;HPM_P1;HPM_P2
2024/03/31 00:00:00;;;;;;;20.25;7.75;;;11.30;99.90;;;;;;4990827;28;20026;-54
2024/03/31 00:02:25;;;;;;;36.58;8.93;;;11.20;99.90;;;;;;4972921;28;20038;-55
2024/03/31 00:04:51;;;;;;;35.72;9.73;;;11.20;99.90;;;;;;4973018;28;20034;-55
2024/03/31 00:07:17;;;;;;;24.83;9.70;;;11.10;99.90;;;;;;4972797;28;20482;-49
2024/03/31 00:09:46;;;;;;;28.15;10.88;;;11.00;99.90;;;;;;4991621;28;20022;-52
2024/03/31 00:12:12;;;;;;;35.10;11.07;;;11.00;99.90;;;;;;4991321;28;20394;-49
2024/03/31 00:14:37;;;;;;;31.88;9.75;;;11.00;99.90;;;;;;4972874;28;20026;-54
2024/03/31 00:17:03;;;;;;;27.67;9.88;;;11.00;99.90;;;;;;4984217;28;20037;-52
2024/03/31 00:19:29;;;;;;;28.45;10.55;;;10.90;99.90;;;;;;4992065;28;20030;-54
2024/03/31 00:21:54;;;;;;;28.23;10.10;;;10.90;99.90;;;;;;5009697;28;20035;-56
2024/03/31 00:24:20;;;;;;;30.02;10.60;;;10.80;99.90;;;;;;5010524;28;20068;-57
2024/03/31 00:26:45;;;;;;;25.10;11.85;;;10.80;99.90;;;;;;5010110;28;20507;-55
2024/03/31 00:29:11;;;;;;;36.38;13.32;;;10.80;99.90;;;;;;5009901;28;20038;-56
2024/03/31 00:31:36;;;;;;;29.55;10.40;;;10.90;99.90;;;;;;5009838;28;20489;-55
2024/03/31 00:34:02;;;;;;;31.40;10.63;;;10.90;99.90;;;;;;5009432;28;20112;-54
2024/03/31 00:36:27;;;;;;;32.90;9.95;;;10.90;99.90;;;;;;5008124;28;20440;-55
2024/03/31 00:38:53;;;;;;;31.73;10.52;;;10.90;99.90;;;;;;4991384;28;20510;-55
2024/03/31 00:41:18;;;;;;;29.52;11.95;;;10.90;99.90;;;;;;5008175;28;20030;-56
2024/03/31 00:43:44;;;;;;;26.20;12.13;;;11.00;99.90;;;;;;5000682;28;20087;-54
2024/03/31 00:46:09;;;;;;;29.88;11.85;;;11.00;99.90;;;;;;5009494;28;20033;-54
2024/03/31 00:48:35;;;;;;;34.05;11.82;;;11.00;99.90;;;;;;5009049;28;20468;-53
2024/03/31 00:51:00;;;;;;;36.35;12.63;;;11.00;99.90;;;;;;5009434;28;20026;-51
2024/03/31 00:53:27;;;;;;;31.50;12.30;;;10.90;99.90;;;;;;5009417;28;20033;-54
2024/03/31 00:55:53;;;;;;;33.78;12.77;;;10.90;99.90;;;;;;4997844;28;20036;-54
2024/03/31 00:58:18;;;;;;;32.58;12.57;;;10.90;99.90;;;;;;4989336;28;20034;-52
2024/03/31 01:00:44;;;;;;;27.70;12.98;;;10.90;99.90;;;;;;4976073;23;20043;-49
2024/03/31 01:03:09;;;;;;;33.70;11.93;;;10.90;99.90;;;;;;4952595;29;20035;-50
2024/03/31 01:05:35;;;;;;;32.28;13.13;;;10.90;99.90;;;;;;4954313;29;20063;-51
2024/03/31 01:08:01;;;;;;;26.70;11.18;;;10.90;99.90;;;;;;4954042;29;20020;-49
2024/03/31 01:10:27;;;;;;;24.20;11.65;;;10.90;99.90;;;;;;4953929;28;20123;-48
2024/03/31 01:12:53;;;;;;;27.52;11.68;;;10.90;99.90;;;;;;4954359;29;20102;-49
2024/03/31 01:15:18;;;;;;;29.80;11.95;;;10.90;99.90;;;;;;4954230;29;20382;-47
2024/03/31 01:17:44;;;;;;;32.58;12.43;;;10.90;99.90;;;;;;4953884;28;20110;-47
2024/03/31 01:20:10;;;;;;;29.80;12.15;;;10.90;99.90;;;;;;4953953;29;20491;-51
2024/03/31 01:22:37;;;;;;;35.80;10.75;;;10.80;99.90;;;;;;4953716;29;20034;-52
2024/03/31 01:25:03;;;;;;;25.92;11.40;;;10.70;99.90;;;;;;4953934;29;20072;-53
2024/03/31 01:27:28;;;;;;;28.75;11.27;;;10.70;99.90;;;;;;4953675;29;20062;-48
2024/03/31 01:29:54;;;;;;;28.58;12.40;;;10.70;99.90;;;;;;4953687;29;20110;-51
2024/03/31 01:32:19;;;;;;;25.70;10.55;;;10.70;99.90;;;;;;4953266;29;20027;-49
2024/03/31 01:34:45;;;;;;;34.70;11.77;;;10.80;99.90;;;;;;4953829;29;20439;-47
2024/03/31 01:37:11;;;;;;;22.65;9.80;;;10.80;99.90;;;;;;4953556;29;20106;-51
2024/03/31 01:39:36;;;;;;;21.30;10.20;;;10.80;99.90;;;;;;4953756;29;20029;-50
2024/03/31 01:42:02;;;;;;;29.92;12.45;;;10.90;99.90;;;;;;4953930;29;20035;-51
2024/03/31 01:44:27;;;;;;;27.05;10.23;;;10.90;99.90;;;;;;4953913;29;20031;-48
2024/03/31 01:46:53;;;;;;;31.83;12.70;;;10.90;99.90;;;;;;4953732;29;20085;-49
2024/03/31 01:49:19;;;;;;;30.80;12.15;;;10.90;99.90;;;;;;4953609;29;20019;-54
2024/03/31 01:51:44;;;;;;;31.85;12.05;;;10.90;99.90;;;;;;4953545;29;20038;-49
2024/03/31 01:54:09;;;;;;;31.33;11.95;;;10.90;99.90;;;;;;4953989;29;20579;-48
2024/03/31 01:56:37;;;;;;;27.08;11.15;;;10.90;99.90;;;;;;4953617;29;20034;-49
2024/03/31 01:59:02;;;;;;;32.65;12.00;;;10.90;99.90;;;;;;4953598;29;20031;-49
2024/03/31 02:01:28;;;;;;;25.17;12.02;;;10.90;99.90;;;;;;4953551;29;20062;-49
2024/03/31 02:03:53;;;;;;;33.80;12.52;;;10.90;99.90;;;;;;4953641;29;20051;-52
2024/03/31 02:06:19;;;;;;;34.28;13.68;;;10.80;99.90;;;;;;4953787;29;20097;-50
2024/03/31 02:08:45;;;;;;;24.23;12.45;;;10.80;99.90;;;;;;4953782;29;20026;-50
2024/03/31 02:11:10;;;;;;;39.33;13.50;;;10.70;99.90;;;;;;4953824;29;20394;-51
2024/03/31 02:13:36;;;;;;;27.13;13.27;;;10.70;99.90;;;;;;4954091;29;20107;-50
2024/03/31 02:16:01;;;;;;;33.97;13.75;;;10.70;99.90;;;;;;4954365;29;20462;-53
2024/03/31 02:18:27;;;;;;;32.63;13.13;;;10.70;99.90;;;;;;4952523;29;20035;-50
2024/03/31 02:20:52;;;;;;;30.00;13.18;;;10.70;99.90;;;;;;4952749;29;20031;-52
2024/03/31 02:23:18;;;;;;;31.60;13.65;;;10.70;99.90;;;;;;4953654;29;20035;-53
2024/03/31 02:25:43;;;;;;;32.67;12.35;;;10.80;99.90;;;;;;4952560;29;20087;-50
2024/03/31 02:28:09;;;;;;;26.05;11.27;;;10.80;99.90;;;;;;4953632;29;20027;-48
2024/03/31 02:30:34;;;;;;;29.50;10.88;;;10.80;99.90;;;;;;4953850;29;20110;-52
2024/03/31 02:33:00;;;;;;;19.10;8.88;;;10.90;99.90;;;;;;4953777;29;20037;-47
2024/03/31 02:35:25;;;;;;;28.15;11.35;;;10.80;99.90;;;;;;4953591;29;20399;-48
2024/03/31 02:37:51;;;;;;;27.40;11.02;;;10.90;99.90;;;;;;4952603;29;20038;-49
2024/03/31 02:40:16;;;;;;;26.35;11.40;;;10.90;99.90;;;;;;4953859;29;20027;-51
2024/03/31 02:42:42;;;;;;;25.80;10.38;;;10.90;99.90;;;;;;4954320;28;20035;-50
2024/03/31 02:45:08;;;;;;;23.08;9.93;;;10.90;99.90;;;;;;4957279;29;20023;-48
2024/03/31 02:47:33;;;;;;;21.00;9.98;;;10.90;99.90;;;;;;4955752;29;20486;-50
2024/03/31 02:49:59;;;;;;;24.45;10.38;;;10.90;99.90;;;;;;4957133;29;20394;-50
2024/03/31 02:52:24;;;;;;;36.50;11.15;;;10.90;99.90;;;;;;4957112;29;20027;-47
2024/03/31 02:54:50;;;;;;;27.25;12.52;;;10.90;99.90;;;;;;4957354;29;20051;-48
2024/03/31 02:57:16;;;;;;;26.65;10.30;;;10.90;99.90;;;;;;4957193;29;20035;-48
2024/03/31 02:59:41;;;;;;;19.02;11.05;;;10.90;99.90;;;;;;4956831;29;20054;-51
2024/03/31 03:02:07;;;;;;;24.15;8.88;;;10.90;99.90;;;;;;4956768;29;20031;-48
2024/03/31 03:04:33;;;;;;;34.60;9.05;;;10.90;99.90;;;;;;4956648;28;20019;-48
2024/03/31 03:06:59;;;;;;;34.50;8.75;;;10.90;99.90;;;;;;4955331;29;20603;-48
2024/03/31 03:09:25;;;;;;;26.65;9.82;;;10.90;99.90;;;;;;4956705;29;20110;-48
2024/03/31 03:11:50;;;;;;;25.10;10.18;;;10.80;99.90;;;;;;4956909;29;20117;-49
2024/03/31 03:14:16;;;;;;;21.25;9.32;;;10.70;99.90;;;;;;4956836;29;20067;-50
2024/03/31 03:16:41;;;;;;;21.38;9.23;;;10.70;99.90;;;;;;4956895;29;20035;-49
2024/03/31 03:19:07;;;;;;;22.02;9.98;;;10.70;99.90;;;;;;4956277;29;20105;-50
2024/03/31 03:21:33;;;;;;;30.13;12.43;;;10.60;99.90;;;;;;4956284;29;20049;-51
2024/03/31 03:23:58;;;;;;;31.45;11.68;;;10.70;99.90;;;;;;4956571;29;20024;-49
2024/03/31 03:26:24;;;;;;;26.50;12.82;;;10.90;99.90;;;;;;4956705;29;20016;-49
2024/03/31 03:28:49;;;;;;;27.17;11.68;;;10.80;99.90;;;;;;4954804;29;20114;-48
2024/03/31 03:31:15;;;;;;;31.67;12.70;;;10.70;99.90;;;;;;4956408;29;20035;-50
2024/03/31 03:33:40;;;;;;;19.23;9.45;;;10.60;99.90;;;;;;4956007;29;20035;-53
2024/03/31 03:36:06;;;;;;;34.17;11.48;;;10.40;99.90;;;;;;4956228;29;20503;-51
2024/03/31 03:38:32;;;;;;;18.85;9.55;;;10.40;99.90;;;;;;4955989;29;20106;-48
2024/03/31 03:40:58;;;;;;;23.77;10.05;;;10.30;99.90;;;;;;4956217;28;20078;-51
2024/03/31 03:43:25;;;;;;;22.58;10.02;;;10.40;99.90;;;;;;4956134;29;20030;-49
2024/03/31 03:45:51;;;;;;;20.30;9.35;;;10.30;99.90;;;;;;4956333;29;20046;-49
2024/03/31 03:48:16;;;;;;;21.25;9.27;;;10.30;99.90;;;;;;4954857;29;20023;-46
2024/03/31 03:50:42;;;;;;;25.38;10.27;;;10.30;99.90;;;;;;4955776;29;20447;-49
2024/03/31 03:53:07;;;;;;;26.58;9.70;;;10.30;99.90;;;;;;4956004;28;20034;-49
2024/03/31 03:55:33;;;;;;;23.00;9.48;;;10.40;99.90;;;;;;4954384;29;20023;-53
2024/03/31 03:57:58;;;;;;;28.35;9.73;;;10.40;99.90;;;;;;4954515;29;20507;-45
2024/03/31 04:00:24;;;;;;;23.85;8.45;;;10.40;99.90;;;;;;4955882;29;20134;-50
2024/03/31 04:02:49;;;;;;;20.48;8.25;;;10.40;99.90;;;;;;4955298;29;20027;-48
2024/03/31 04:05:15;;;;;;;26.50;8.45;;;10.40;99.90;;;;;;4954819;29;20031;-48
2024/03/31 04:07:41;;;;;;;18.10;8.73;;;10.40;99.90;;;;;;4955765;29;20067;-49
2024/03/31 04:10:06;;;;;;;25.00;9.43;;;10.40;99.90;;;;;;4954868;29;20031;-47
2024/03/31 04:12:32;;;;;;;30.08;9.75;;;10.40;99.90;;;;;;4954689;29;20118;-48
2024/03/31 04:14:59;;;;;;;18.60;9.40;;;10.30;99.90;;;;;;4956095;29;20027;-47
2024/03/31 04:17:24;;;;;;;22.75;9.73;;;10.40;99.90;;;;;;4955605;28;20024;-48
2024/03/31 04:19:50;;;;;;;28.73;10.80;;;10.30;99.90;;;;;;4956175;29;20050;-49
2024/03/31 04:22:15;;;;;;;23.25;8.90;;;10.30;99.90;;;;;;4956230;29;20035;-47
2024/03/31 04:24:41;;;;;;;25.05;9.40;;;10.20;99.90;;;;;;4955987;29;20039;-51
2024/03/31 04:27:06;;;;;;;26.90;9.45;;;10.10;99.90;;;;;;4955684;29;20372;-50
2024/03/31 04:29:32;;;;;;;31.77;10.10;;;10.10;99.90;;;;;;4955231;29;20098;-50
2024/03/31 04:31:58;;;;;;;27.10;10.70;;;10.00;99.90;;;;;;4954791;29;20055;-51
2024/03/31 04:34:30;;;;;;;31.20;10.52;;;10.00;99.90;;;;;;4953983;29;20474;-51
2024/03/31 04:36:56;;;;;;;29.75;9.43;;;10.00;99.90;;;;;;4955457;29;20066;-51
2024/03/31 04:39:23;;;;;;;18.83;8.93;;;10.00;99.90;;;;;;4955635;28;20082;-49
2024/03/31 04:41:51;;;;;;;24.63;9.18;;;9.90;99.90;;;;;;4955342;28;20031;-51
2024/03/31 04:44:16;;;;;;;30.20;10.07;;;9.90;99.90;;;;;;4954218;29;20106;-56
2024/03/31 04:46:44;;;;;;;30.65;9.07;;;9.90;99.90;;;;;;4955562;29;20114;-48
2024/03/31 04:49:09;;;;;;;29.25;9.32;;;9.90;99.90;;;;;;4953898;29;20039;-50
2024/03/31 04:51:35;;;;;;;19.70;8.95;;;9.90;99.90;;;;;;4955377;29;20027;-49
2024/03/31 04:54:02;;;;;;;33.13;10.98;;;9.80;99.90;;;;;;4954260;29;20063;-48
2024/03/31 04:56:28;;;;;;;27.00;9.23;;;9.80;99.90;;;;;;4956423;29;20039;-49
2024/03/31 04:58:53;;;;;;;22.45;8.90;;;9.70;99.90;;;;;;4953824;29;20446;-51
2024/03/31 05:01:19;;;;;;;19.30;10.20;;;9.70;99.90;;;;;;4953423;29;20034;-48
2024/03/31 05:03:44;;;;;;;30.40;10.15;;;9.80;99.90;;;;;;4955299;29;20372;-53
2024/03/31 05:06:10;;;;;;;20.33;9.60;;;9.80;99.90;;;;;;4954797;28;20028;-54
2024/03/31 05:08:35;;;;;;;18.90;10.75;;;9.60;99.90;;;;;;4955162;29;20054;-48
2024/03/31 05:11:01;;;;;;;28.38;11.30;;;9.70;99.90;;;;;;4954958;29;20027;-52
2024/03/31 05:13:30;;;;;;;26.52;11.07;;;9.70;99.90;;;;;;4955165;29;20617;-47
2024/03/31 05:16:02;;;;;;;24.50;9.85;;;9.60;99.90;;;;;;4953983;29;20031;-49
2024/03/31 05:18:28;;;;;;;27.13;10.65;;;9.60;99.90;;;;;;4955197;29;20086;-49
2024/03/31 05:20:58;;;;;;;30.50;10.90;;;9.70;99.90;;;;;;4953555;29;20027;-48
2024/03/31 05:23:23;;;;;;;28.63;11.13;;;9.70;99.90;;;;;;4955092;29;20050;-49
2024/03/31 05:25:49;;;;;;;21.30;11.27;;;9.80;99.90;;;;;;4955261;29;20019;-48
2024/03/31 05:28:15;;;;;;;37.03;11.23;;;9.90;99.90;;;;;;4954779;29;20110;-52
2024/03/31 05:30:41;;;;;;;29.50;11.10;;;9.90;99.90;;;;;;4953770;29;20118;-48
2024/03/31 05:33:06;;;;;;;28.35;11.18;;;9.80;99.90;;;;;;4955002;29;20031;-53
2024/03/31 05:35:32;;;;;;;31.27;11.63;;;10.70;99.90;;;;;;4954976;29;20031;-48
2024/03/31 05:37:57;;;;;;;31.63;11.25;;;9.90;99.90;;;;;;4954570;29;20380;-52
2024/03/31 05:40:23;;;;;;;37.58;11.60;;;9.90;99.90;;;;;;4954497;29;20114;-50
2024/03/31 05:42:48;;;;;;;35.25;11.68;;;10.00;99.90;;;;;;4954617;29;20483;-49
2024/03/31 05:45:14;;;;;;;26.30;12.95;;;10.00;99.90;;;;;;4954796;29;20038;-49
2024/03/31 05:47:39;;;;;;;25.70;10.38;;;10.00;99.90;;;;;;4954341;29;20039;-50
2024/03/31 05:50:06;;;;;;;25.27;10.73;;;10.00;99.90;;;;;;4954226;29;20029;-51
2024/03/31 05:52:31;;;;;;;32.03;11.85;;;10.00;99.90;;;;;;4954783;29;20513;-52
2024/03/31 05:54:57;;;;;;;31.80;10.77;;;10.00;99.90;;;;;;4954893;29;20031;-49
2024/03/31 05:57:22;;;;;;;25.00;10.18;;;10.00;99.90;;;;;;4954726;29;20054;-50
2024/03/31 05:59:48;;;;;;;36.45;11.60;;;10.00;99.90;;;;;;4952837;29;20078;-50
2024/03/31 06:02:13;;;;;;;26.80;9.73;;;10.00;99.90;;;;;;4954378;29;20061;-50
2024/03/31 06:04:40;;;;;;;22.45;8.85;;;10.00;99.90;;;;;;4954149;29;20041;-53
2024/03/31 06:07:05;;;;;;;25.25;9.15;;;10.20;99.90;;;;;;4954340;28;20031;-48
2024/03/31 06:09:31;;;;;;;28.27;8.90;;;10.20;99.90;;;;;;4954415;29;20027;-49
2024/03/31 06:11:56;;;;;;;33.53;10.05;;;10.20;99.90;;;;;;4954504;29;20027;-53
2024/03/31 06:14:22;;;;;;;26.60;8.77;;;10.30;99.90;;;;;;4954428;29;20032;-48
2024/03/31 06:16:47;;;;;;;34.85;9.30;;;10.30;99.90;;;;;;4953488;28;20042;-53
2024/03/31 06:19:13;;;;;;;22.88;7.93;;;10.40;99.90;;;;;;4957731;29;20039;-49
2024/03/31 06:21:38;;;;;;;22.98;9.32;;;10.50;99.90;;;;;;4957978;29;20098;-51
2024/03/31 06:24:04;;;;;;;26.92;8.68;;;10.50;99.90;;;;;;4957674;29;20073;-48
2024/03/31 06:26:30;;;;;;;19.70;7.88;;;10.70;99.90;;;;;;4956259;29;20023;-48
2024/03/31 06:28:55;;;;;;;28.45;7.30;;;10.90;99.90;;;;;;4957371;29;20023;-48
2024/03/31 06:31:20;;;;;;;15.65;6.75;;;11.10;99.90;;;;;;4957662;29;20427;-53
2024/03/31 06:33:46;;;;;;;24.67;7.85;;;11.10;99.90;;;;;;4957435;29;20118;-48
2024/03/31 06:36:11;;;;;;;24.27;7.40;;;11.20;99.90;;;;;;4957312;29;20487;-47
2024/03/31 06:38:37;;;;;;;20.38;6.72;;;11.20;99.90;;;;;;4957244;29;20023;-51
2024/03/31 06:41:03;;;;;;;19.10;6.78;;;11.40;99.90;;;;;;4957444;29;20054;-48
2024/03/31 06:43:29;;;;;;;22.25;6.80;;;11.70;99.90;;;;;;4957139;29;20046;-47
2024/03/31 06:45:54;;;;;;;24.50;7.32;;;11.90;99.90;;;;;;4957478;28;20399;-48
2024/03/31 06:48:20;;;;;;;13.80;5.65;;;12.10;99.90;;;;;;4957153;29;20034;-48
2024/03/31 06:50:45;;;;;;;26.38;5.85;;;12.10;99.90;;;;;;4956819;28;20053;-48
2024/03/31 06:53:11;;;;;;;19.27;5.95;;;11.90;99.90;;;;;;4957644;29;20039;-47
2024/03/31 06:55:37;;;;;;;31.63;7.05;;;11.70;99.90;;;;;;4957304;29;20028;-48
2024/03/31 06:58:02;;;;;;;25.63;6.25;;;11.70;99.90;;;;;;4956582;29;20091;-48
2024/03/31 07:00:28;;;;;;;13.95;5.40;;;11.90;99.90;;;;;;4957190;29;20039;-51
2024/03/31 07:02:53;;;;;;;31.25;5.97;;;12.40;99.90;;;;;;4956430;29;20106;-47
2024/03/31 07:05:19;;;;;;;18.92;5.65;;;12.70;99.90;;;;;;4957070;29;20039;-55
2024/03/31 07:07:44;;;;;;;25.42;5.50;;;12.80;99.90;;;;;;4974106;28;20027;-52
2024/03/31 07:10:10;;;;;;;11.40;4.97;;;13.10;99.90;;;;;;4976352;28;20110;-52
2024/03/31 07:12:35;;;;;;;21.98;5.80;;;13.30;99.90;;;;;;4977638;28;20034;-53
2024/03/31 07:15:01;;;;;;;20.63;4.82;;;13.30;99.90;;;;;;4977799;28;20431;-50
2024/03/31 07:17:26;;;;;;;15.50;5.15;;;13.30;99.90;;;;;;4975265;28;20031;-50
2024/03/31 07:19:52;;;;;;;17.38;4.55;;;13.40;99.90;;;;;;4963314;28;20027;-52
2024/03/31 07:22:17;;;;;;;19.75;4.55;;;13.40;99.90;;;;;;4956471;29;20117;-51
2024/03/31 07:24:42;;;;;;;28.55;5.95;;;13.60;99.90;;;;;;4957025;29;20035;-54
2024/03/31 07:27:08;;;;;;;27.58;5.32;;;13.70;99.90;;;;;;4968012;28;20030;-53
2024/03/31 07:29:34;;;;;;;27.95;4.55;;;14.20;99.90;;;;;;4974585;28;20082;-55
2024/03/31 07:31:59;;;;;;;17.58;4.18;;;15.10;99.90;;;;;;4972005;28;20057;-53
2024/03/31 07:34:26;;;;;;;17.25;3.92;;;15.90;99.90;;;;;;4946763;29;20114;-57
2024/03/31 07:36:51;;;;;;;18.98;4.10;;;16.20;99.90;;;;;;4943433;28;20082;-56
2024/03/31 07:39:17;;;;;;;15.45;3.80;;;16.10;99.90;;;;;;4944882;28;20031;-52
2024/03/31 07:41:42;;;;;;;13.32;3.55;;;16.50;99.90;;;;;;4957096;28;20046;-52
2024/03/31 07:44:08;;;;;;;16.25;3.42;;;16.50;99.90;;;;;;4955703;29;20023;-55
2024/03/31 07:46:33;;;;;;;16.08;3.72;;;17.10;99.90;;;;;;4972485;28;20101;-55
2024/03/31 07:48:59;;;;;;;16.02;3.30;;;17.70;99.90;;;;;;4975330;28;20089;-54
2024/03/31 07:51:24;;;;;;;11.38;3.08;;;18.00;99.90;;;;;;4975927;28;20395;-52
2024/03/31 07:53:50;;;;;;;19.30;3.67;;;18.40;99.90;;;;;;4963596;28;20109;-57
2024/03/31 07:56:15;;;;;;;13.35;2.97;;;18.90;99.90;;;;;;4973078;28;20037;-55
2024/03/31 07:58:41;;;;;;;14.73;2.97;;;19.30;99.90;;;;;;4973971;28;20046;-57
2024/03/31 08:01:07;;;;;;;13.40;2.90;;;18.90;99.90;;;;;;4974170;28;20124;-59
2024/03/31 08:03:32;;;;;;;17.77;3.13;;;18.60;99.90;;;;;;4972745;28;20062;-54
2024/03/31 08:05:58;;;;;;;20.58;3.83;;;19.00;99.90;;;;;;4972986;28;20069;-55
2024/03/31 08:08:23;;;;;;;16.17;3.13;;;19.40;99.90;;;;;;4971771;28;20066;-54
2024/03/31 08:10:49;;;;;;;11.93;2.83;;;19.50;99.90;;;;;;4962624;28;20078;-59
2024/03/31 08:13:14;;;;;;;11.43;3.53;;;18.70;99.90;;;;;;4973705;28;20034;-53
2024/03/31 08:15:44;;;;;;;14.68;4.82;;;18.40;99.90;;;;;;4962130;28;20039;-55
2024/03/31 08:18:10;;;;;;;13.80;4.30;;;18.30;99.90;;;;;;4956258;28;20027;-54
2024/03/31 08:20:35;;;;;;;12.35;3.35;;;18.50;99.90;;;;;;4960918;28;20031;-57
2024/03/31 08:23:01;;;;;;;11.90;3.58;;;17.90;99.90;;;;;;4963425;28;20118;-55
2024/03/31 08:25:27;;;;;;;15.32;4.78;;;17.90;99.90;;;;;;4970901;28;20051;-57
2024/03/31 08:27:52;;;;;;;14.68;3.55;;;17.90;99.90;;;;;;4958693;28;20031;-53
2024/03/31 08:30:18;;;;;;;21.25;3.45;;;17.90;99.90;;;;;;4940235;28;20024;-51
2024/03/31 08:32:46;;;;;;;12.45;3.42;;;17.90;99.90;;;;;;4972296;28;20435;-55
2024/03/31 08:35:12;;;;;;;17.63;4.18;;;17.50;99.90;;;;;;4965629;28;20026;-54
2024/03/31 08:37:37;;;;;;;12.88;3.20;;;17.20;99.90;;;;;;4970924;28;20077;-57
2024/03/31 08:40:05;;;;;;;13.93;4.40;;;16.80;99.90;;;;;;4971496;28;20042;-51
2024/03/31 08:42:43;;;;;;;19.75;4.63;;;16.70;99.90;;;;;;4971902;28;20482;-56
2024/03/31 08:45:12;;;;;;;12.23;3.13;;;16.20;99.90;;;;;;4971675;28;20113;-54
2024/03/31 08:47:42;;;;;;;11.88;3.38;;;15.80;99.90;;;;;;4971964;28;20026;-54
2024/03/31 08:50:08;;;;;;;22.95;3.55;;;16.00;99.90;;;;;;4972120;28;20031;-55
2024/03/31 08:52:34;;;;;;;18.45;4.55;;;16.60;99.90;;;;;;4972267;28;20018;-52
2024/03/31 08:55:02;;;;;;;23.30;3.45;;;17.30;99.90;;;;;;4972066;28;20026;-52
2024/03/31 08:57:28;;;;;;;18.20;4.38;;;17.80;99.90;;;;;;4972086;28;20034;-55
2024/03/31 08:59:53;;;;;;;14.27;4.00;;;18.50;99.90;;;;;;4972092;28;20399;-50
2024/03/31 09:02:24;;;;;;;16.05;3.08;;;19.10;99.90;;;;;;4963897;28;20027;-56
2024/03/31 09:04:51;;;;;;;14.38;3.60;;;19.60;99.90;;;;;;4969465;28;20037;-50
2024/03/31 09:07:16;;;;;;;12.23;3.05;;;19.70;99.90;;;;;;4972016;28;20023;-54
2024/03/31 09:09:42;;;;;;;11.23;3.25;;;19.80;99.90;;;;;;4970833;28;20517;-55
2024/03/31 09:12:11;;;;;;;15.63;4.40;;;19.50;99.90;;;;;;4953324;28;20031;-55
2024/03/31 09:14:38;;;;;;;15.55;3.10;;;19.20;99.90;;;;;;4952574;28;20031;-57
2024/03/31 09:17:07;;;;;;;10.43;3.47;;;18.80;99.90;;;;;;4953395;28;20035;-58
2024/03/31 09:19:32;;;;;;;11.98;3.60;;;18.80;99.90;;;;;;4957895;28;20035;-55
2024/03/31 09:21:58;;;;;;;22.55;3.60;;;19.00;99.90;;;;;;4940201;28;20027;-56
2024/03/31 09:24:24;;;;;;;10.57;2.80;;;19.20;99.90;;;;;;4950473;28;20035;-56
2024/03/31 09:26:49;;;;;;;14.77;3.75;;;19.60;99.90;;;;;;4969617;28;20121;-53
2024/03/31 09:29:15;;;;;;;14.25;3.83;;;18.90;99.90;;;;;;4972379;28;20019;-54
2024/03/31 09:31:40;;;;;;;11.48;3.30;;;18.30;99.90;;;;;;4972469;28;20034;-51
2024/03/31 09:34:07;;;;;;;14.18;3.72;;;17.80;99.90;;;;;;4972358;28;20039;-57
2024/03/31 09:36:39;;;;;;;17.80;3.70;;;17.50;99.90;;;;;;4966948;28;20031;-57
2024/03/31 09:39:05;;;;;;;16.73;3.30;;;17.10;99.90;;;;;;4954509;28;20027;-55
2024/03/31 09:41:31;;;;;;;18.65;4.07;;;17.20;99.90;;;;;;4970725;28;20061;-54
2024/03/31 09:43:58;;;;;;;18.42;3.35;;;17.50;99.90;;;;;;4970636;28;20546;-52
2024/03/31 09:46:24;;;;;;;14.52;3.25;;;17.70;99.90;;;;;;4972384;28;20037;-53
2024/03/31 09:48:51;;;;;;;17.25;3.03;;;18.00;99.90;;;;;;4960533;28;20410;-53
2024/03/31 09:51:22;;;;;;;16.58;3.75;;;18.40;99.90;;;;;;4956362;28;21025;-55
2024/03/31 09:54:13;;;;;;;21.40;3.25;;;18.00;99.90;;;;;;4974158;28;20048;-55
2024/03/31 09:56:47;;;;;;;20.80;3.88;;;17.90;99.90;;;;;;4974441;28;20082;-55
2024/03/31 09:59:15;;;;;;;27.40;3.88;;;17.70;99.90;;;;;;4966041;28;20561;-56
2024/03/31 10:01:45;;;;;;;17.40;3.45;;;17.50;99.90;;;;;;4955813;29;20480;-55
2024/03/31 10:04:24;;;;;;;20.73;3.35;;;17.80;99.90;;;;;;4955838;29;20031;-53
2024/03/31 10:06:50;;;;;;;21.55;3.95;;;18.10;99.90;;;;;;4956083;29;20074;-59
2024/03/31 10:09:16;;;;;;;70.28;33.90;;;18.00;99.90;;;;;;4956327;28;20402;-56
2024/03/31 10:11:43;;;;;;;45.30;19.23;;;18.10;99.90;;;;;;4960193;28;20024;-55
2024/03/31 10:14:09;;;;;;;50.50;15.43;;;18.00;99.90;;;;;;4956181;29;20035;-54
2024/03/31 10:16:37;;;;;;;21.45;4.25;;;17.80;99.90;;;;;;4955783;29;20086;-49
2024/03/31 10:19:03;;;;;;;17.88;3.45;;;17.60;99.90;;;;;;4953691;29;20035;-56
2024/03/31 10:21:30;;;;;;;22.35;4.18;;;17.30;99.90;;;;;;4954034;29;20030;-55
2024/03/31 10:23:57;;;;;;;20.77;3.55;;;17.20;99.90;;;;;;4955544;28;20677;-51
2024/03/31 10:26:23;;;;;;;18.90;3.88;;;17.30;99.90;;;;;;4955393;28;20478;-53
2024/03/31 10:28:50;;;;;;;16.90;3.15;;;17.60;99.90;;;;;;4955104;28;20070;-54
2024/03/31 10:31:16;;;;;;;26.67;3.53;;;17.60;99.90;;;;;;4955036;28;20098;-49
2024/03/31 10:33:42;;;;;;;23.02;3.83;;;17.70;99.90;;;;;;4954111;29;20415;-52
2024/03/31 10:36:10;;;;;;;19.83;3.15;;;18.00;99.90;;;;;;4955782;29;20031;-52
2024/03/31 10:38:35;;;;;;;19.20;4.82;;;17.90;99.90;;;;;;4954675;28;20050;-55
2024/03/31 10:41:02;;;;;;;12.65;3.15;;;17.80;99.90;;;;;;4953645;29;20035;-57
2024/03/31 10:43:28;;;;;;;17.58;3.60;;;17.90;99.90;;;;;;4955150;28;20038;-51
2024/03/31 10:45:54;;;;;;;18.20;4.63;;;17.90;99.90;;;;;;4961553;28;20082;-52
2024/03/31 10:48:19;;;;;;;15.73;2.75;;;17.90;99.90;;;;;;4976153;28;20121;-59
2024/03/31 10:50:45;;;;;;;19.30;3.47;;;17.80;99.90;;;;;;4976253;28;20522;-59
2024/03/31 10:53:11;;;;;;;20.77;4.05;;;17.70;99.90;;;;;;4977163;28;20501;-57
2024/03/31 10:55:42;;;;;;;20.45;3.80;;;17.40;99.90;;;;;;4974377;28;20030;-51
2024/03/31 10:58:13;;;;;;;19.90;3.22;;;17.30;99.90;;;;;;4976830;28;20038;-51
2024/03/31 11:00:43;;;;;;;18.45;4.03;;;17.40;99.90;;;;;;4974758;28;20074;-52
2024/03/31 11:03:09;;;;;;;17.83;3.05;;;17.50;99.90;;;;;;4964488;28;20031;-59
2024/03/31 11:05:34;;;;;;;11.40;3.30;;;17.20;99.90;;;;;;4956896;29;20027;-54
2024/03/31 11:08:02;;;;;;;22.58;3.92;;;17.10;99.90;;;;;;4966246;29;20034;-54
2024/03/31 11:10:31;;;;;;;19.83;4.20;;;17.30;99.90;;;;;;4976249;28;20055;-52
2024/03/31 11:12:56;;;;;;;25.77;3.60;;;17.20;99.90;;;;;;4964508;28;20087;-50
2024/03/31 11:15:22;;;;;;;19.20;4.13;;;17.20;99.90;;;;;;4969636;28;20062;-55
2024/03/31 11:17:48;;;;;;;24.33;4.32;;;17.20;99.90;;;;;;4960116;28;20023;-50
2024/03/31 11:20:14;;;;;;;23.45;3.60;;;17.40;99.90;;;;;;4944458;29;20047;-51
2024/03/31 11:22:41;;;;;;;48.70;17.05;;;17.50;99.90;;;;;;4972848;28;20027;-54
2024/03/31 11:25:07;;;;;;;28.65;5.82;;;17.50;99.90;;;;;;4944746;28;20436;-49
2024/03/31 11:27:33;;;;;;;19.92;3.83;;;17.60;99.90;;;;;;4972441;28;20489;-50
2024/03/31 11:30:03;;;;;;;15.98;2.88;;;17.70;99.90;;;;;;4962828;28;20086;-50
2024/03/31 11:32:32;;;;;;;18.10;3.08;;;17.90;99.90;;;;;;4966886;28;20630;-52
2024/03/31 11:35:01;;;;;;;21.38;3.35;;;18.00;99.90;;;;;;4971775;28;20042;-46
2024/03/31 11:37:26;;;;;;;23.88;3.55;;;17.70;99.90;;;;;;4975743;28;20490;-51
2024/03/31 11:39:59;;;;;;;18.75;3.13;;;18.00;99.90;;;;;;4977429;28;20046;-55
2024/03/31 11:42:26;;;;;;;24.15;3.42;;;18.00;99.90;;;;;;4974499;28;20053;-52
2024/03/31 11:44:53;;;;;;;22.77;4.18;;;18.10;99.90;;;;;;4976934;28;20042;-51
2024/03/31 11:47:18;;;;;;;27.13;4.13;;;18.00;99.90;;;;;;4976919;28;20107;-53
2024/03/31 11:49:44;;;;;;;31.30;3.33;;;18.10;99.90;;;;;;4976648;28;20062;-56
2024/03/31 11:52:10;;;;;;;23.25;5.57;;;18.10;99.90;;;;;;4977347;28;20101;-53
2024/03/31 11:54:35;;;;;;;19.90;3.40;;;18.30;99.90;;;;;;4974647;28;20378;-54
2024/03/31 11:57:04;;;;;;;20.77;3.40;;;18.20;99.90;;;;;;4977109;28;20038;-50
2024/03/31 11:59:30;;;;;;;27.98;3.90;;;18.40;99.90;;;;;;4976881;28;20053;-51
2024/03/31 12:01:57;;;;;;;23.27;3.78;;;18.50;99.90;;;;;;4977423;28;20289;-52
2024/03/31 12:04:23;;;;;;;23.15;4.07;;;18.60;99.90;;;;;;4974796;28;20062;-55
2024/03/31 12:06:49;;;;;;;17.00;2.80;;;18.60;99.90;;;;;;4975730;28;20042;-54
2024/03/31 12:09:15;;;;;;;20.25;3.22;;;18.70;99.90;;;;;;4975670;28;20033;-56
2024/03/31 12:11:45;;;;;;;17.65;2.42;;;18.80;99.90;;;;;;4976077;28;20102;-57
2024/03/31 12:14:12;;;;;;;20.13;2.65;;;18.80;99.90;;;;;;4976502;28;20029;-51
2024/03/31 12:16:41;;;;;;;25.30;4.05;;;18.70;99.90;;;;;;4975964;28;20037;-53
2024/03/31 12:19:06;;;;;;;18.23;3.28;;;18.70;99.90;;;;;;4976114;28;20517;-53
2024/03/31 12:21:34;;;;;;;35.72;4.80;;;18.60;99.90;;;;;;4976292;28;20050;-55
2024/03/31 12:24:00;;;;;;;19.83;3.22;;;18.60;99.90;;;;;;4974686;28;20077;-54
2024/03/31 12:26:27;;;;;;;19.45;4.05;;;18.60;99.90;;;;;;4977680;28;20031;-54